Time;durP1;ratioP1;P1;durP2;ratioP2;P2;SDS_P1;SDS_P2;PMS_P1;PMS_P2;Temp;Humidity;BMP_temperature;BMP_pressure;BME280_temperature;BME280_humidity;BME280_pressure;Samples;Min_cycle;Max_cycle;Signal;HPM_P1;HPM_P2
2022/01/02 00:00:46;;;;;;;2.30;2.00;;;12.40;99.90;12.40;101652.00;;;;5035699;28;20256;-67
2022/01/02 00:03:23;;;;;;;0.30;0.30;;;12.40;99.90;12.40;101658.00;;;;5035722;28;20182;-67
2022/01/02 00:06:02;;;;;;;0.30;0.30;;;12.40;99.90;12.20;101663.00;;;;5035453;28;20174;-67
2022/01/02 00:08:51;;;;;;;0.73;0.73;;;12.30;99.90;12.30;101668.00;;;;5034430;28;20184;-67
2022/01/02 00:11:26;;;;;;;0.70;0.70;;;12.30;99.90;12.50;101667.00;;;;5034408;28;20204;-67
2022/01/02 00:14:08;;;;;;;0.23;0.23;;;12.30;99.90;12.30;101677.00;;;;5035396;28;20533;-67
2022/01/02 00:17:01;;;;;;;0.40;0.40;;;12.30;99.90;12.40;101669.00;;;;5017940;28;20191;-67
2022/01/02 00:19:44;;;;;;;5.57;1.93;;;12.30;99.90;12.20;101665.00;;;;5034530;28;20316;-67
2022/01/02 00:22:22;;;;;;;0.43;0.43;;;12.30;99.90;12.00;101665.00;;;;5033920;28;20189;-67
2022/01/02 00:24:57;;;;;;;1.03;1.03;;;12.20;99.90;12.30;101645.00;;;;5034057;28;20669;-67
2022/01/02 00:27:40;;;;;;;0.50;0.50;;;12.30;99.90;12.20;101661.00;;;;5034017;28;20169;-68
2022/01/02 00:30:22;;;;;;;1.80;1.70;;;12.20;99.90;11.80;101646.00;;;;5034252;28;20177;-68
2022/01/02 00:32:58;;;;;;;0.50;0.50;;;12.10;99.90;12.00;101649.00;;;;5033961;28;20736;-67
2022/01/02 00:35:36;;;;;;;0.30;0.30;;;12.00;99.90;12.10;101637.00;;;;5034002;28;20619;-67
2022/01/02 00:38:21;;;;;;;0.30;0.30;;;12.10;99.90;12.10;101629.00;;;;5033760;28;20632;-67
2022/01/02 00:40:57;;;;;;;0.40;0.40;;;12.10;99.90;12.00;101623.00;;;;5033828;28;20184;-67
2022/01/02 00:43:47;;;;;;;1.23;1.13;;;12.00;99.90;12.10;101609.00;;;;5033557;28;20200;-67
2022/01/02 00:46:24;;;;;;;0.30;0.30;;;12.00;99.90;12.00;101603.00;;;;5033870;28;20181;-67
2022/01/02 00:49:07;;;;;;;0.30;0.30;;;12.10;99.90;12.30;101604.00;;;;5033711;28;20659;-67
2022/01/02 00:51:56;;;;;;;0.40;0.40;;;12.10;99.90;12.30;101557.00;;;;5034405;28;20292;-67
2022/01/02 00:54:35;;;;;;;0.30;0.30;;;12.10;99.90;12.00;101603.00;;;;5033233;28;20244;-67
2022/01/02 00:57:18;;;;;;;0.30;0.30;;;12.10;99.90;12.20;101536.00;;;;5033705;28;20185;-67
2022/01/02 01:00:06;;;;;;;0.30;0.30;;;12.10;99.90;12.20;101594.00;;;;5033434;28;20219;-67
2022/01/02 01:02:57;;;;;;;0.70;0.70;;;12.10;99.90;12.10;101586.00;;;;5034736;28;20235;-67
2022/01/02 01:05:39;;;;;;;0.77;0.77;;;12.10;99.90;12.30;101549.00;;;;5033311;28;20184;-67
2022/01/02 01:08:16;;;;;;;1.33;0.60;;;12.10;99.90;12.20;101583.00;;;;5033241;28;20227;-67
2022/01/02 01:10:48;;;;;;;0.30;0.30;;;12.10;99.90;12.00;101569.00;;;;5034730;28;21347;-67
2022/01/02 01:13:25;;;;;;;0.30;0.30;;;12.10;99.90;12.30;101582.00;;;;5033081;28;20222;-67
2022/01/02 01:16:00;;;;;;;0.30;0.30;;;12.10;99.90;12.30;101565.00;;;;5033035;28;20233;-67
2022/01/02 01:18:36;;;;;;;0.50;0.50;;;12.10;99.90;12.20;101553.00;;;;5034459;28;20173;-67
2022/01/02 01:21:14;;;;;;;0.40;0.40;;;12.10;99.90;12.20;101547.00;;;;5033938;28;20231;-66
2022/01/02 01:23:48;;;;;;;0.37;0.37;;;12.20;99.90;12.10;101546.00;;;;5034220;28;20177;-67
2022/01/02 01:26:22;;;;;;;0.83;0.53;;;12.10;99.90;12.10;101544.00;;;;5033748;28;20191;-67
2022/01/02 01:28:59;;;;;;;0.27;0.27;;;12.10;99.90;12.40;101549.00;;;;5033156;28;20549;-67
2022/01/02 01:31:27;;;;;;;0.30;0.30;;;12.20;99.90;12.70;101519.00;;;;5032680;28;20335;-67
2022/01/02 01:34:04;;;;;;;0.30;0.30;;;12.40;99.90;12.80;101555.00;;;;5032730;28;20272;-67
2022/01/02 01:36:41;;;;;;;0.60;0.60;;;12.50;99.90;12.50;101535.00;;;;5033953;28;20174;-67
2022/01/02 01:39:15;;;;;;;0.47;0.47;;;12.40;99.90;12.50;101522.00;;;;5033819;28;20654;-67
2022/01/02 01:41:54;;;;;;;0.50;0.50;;;12.40;99.90;12.50;101512.00;;;;5032678;28;20192;-67
2022/01/02 01:45:28;;;;;;;0.40;0.40;;;12.40;99.90;12.40;101497.00;;;;5032736;28;20309;-67
2022/01/02 01:47:34;;;;;;;0.60;0.60;;;12.40;99.90;12.30;101460.00;;;;5036490;28;20194;-67
2022/01/02 01:50:11;;;;;;;0.30;0.30;;;12.30;99.90;12.40;101496.00;;;;5032240;28;20172;-66
2022/01/02 01:52:51;;;;;;;0.50;0.50;;;12.30;99.90;12.50;101498.00;;;;5032525;28;20225;-66
2022/01/02 01:55:35;;;;;;;0.30;0.30;;;12.30;99.90;12.50;101496.00;;;;5049316;28;20214;-66
2022/01/02 01:58:11;;;;;;;0.57;0.57;;;12.40;99.90;12.60;101494.00;;;;5032383;28;20193;-66
2022/01/02 02:00:47;;;;;;;0.73;0.67;;;12.40;99.90;12.30;101475.00;;;;5032341;28;20194;-66
2022/01/02 02:03:39;;;;;;;0.30;0.30;;;12.40;99.90;12.40;101481.00;;;;5033632;28;20620;-66
2022/01/02 02:06:13;;;;;;;0.67;0.67;;;12.40;99.90;12.40;101483.00;;;;5032281;28;20193;-66
2022/01/02 02:08:47;;;;;;;5.80;1.60;;;12.40;99.90;12.30;101473.00;;;;5032169;28;20199;-66
2022/01/02 02:11:24;;;;;;;0.73;0.73;;;12.40;99.90;12.40;101479.00;;;;5033493;28;20210;-66
2022/01/02 02:14:01;;;;;;;0.83;0.70;;;12.40;99.90;12.50;101472.00;;;;5033213;28;20570;-66
2022/01/02 02:16:38;;;;;;;0.70;0.43;;;12.50;99.90;12.40;101467.00;;;;5032278;28;20180;-66
2022/01/02 02:19:09;;;;;;;1.23;1.13;;;12.50;99.90;12.60;101452.00;;;;5033054;28;20174;-67
2022/01/02 02:21:43;;;;;;;0.70;0.70;;;12.50;99.90;12.40;101462.00;;;;5032283;28;20235;-66
2022/01/02 02:24:20;;;;;;;0.20;0.20;;;12.50;99.90;12.70;101475.00;;;;5031708;28;20190;-67
2022/01/02 02:26:54;;;;;;;1.10;0.90;;;12.50;99.90;12.70;101475.00;;;;5032043;28;20192;-67
2022/01/02 02:29:28;;;;;;;0.40;0.40;;;12.60;99.90;12.50;101475.00;;;;5031910;28;20202;-67
2022/01/02 02:32:03;;;;;;;1.33;1.33;;;12.50;99.90;12.40;101459.00;;;;5032144;28;20267;-66
2022/01/02 02:34:39;;;;;;;0.70;0.70;;;12.50;99.90;12.40;101460.00;;;;5032797;28;20189;-66
2022/01/02 02:37:16;;;;;;;10.83;1.93;;;12.40;99.90;12.50;101465.00;;;;5032015;28;20176;-66
2022/01/02 02:39:52;;;;;;;0.40;0.40;;;12.50;99.90;12.50;101465.00;;;;5033081;28;20650;-67
2022/01/02 02:42:38;;;;;;;0.30;0.30;;;12.60;99.90;12.40;101447.00;;;;5048489;28;20178;-66
2022/01/02 02:54:32;;;;;;;0.20;0.20;;;12.60;99.90;12.70;101466.00;;;;5031528;28;20193;-67
2022/01/02 02:57:12;;;;;;;1.33;1.23;;;12.70;99.90;12.90;101441.00;;;;5032048;28;20217;-67
2022/01/02 02:59:53;;;;;;;0.43;0.43;;;12.80;99.90;12.90;101440.00;;;;5031764;28;20270;-67
2022/01/02 03:02:32;;;;;;;0.87;0.87;;;12.70;99.90;12.70;101437.00;;;;5032527;28;20193;-66
2022/01/02 03:05:12;;;;;;;0.40;0.40;;;12.70;99.90;12.80;101447.00;;;;5031553;28;20185;-67
2022/01/02 03:07:45;;;;;;;0.60;0.60;;;12.70;99.90;12.80;101434.00;;;;5031767;28;20258;-67
2022/01/02 03:10:19;;;;;;;0.30;0.30;;;12.70;99.90;12.80;101411.00;;;;5033242;28;20603;-67
2022/01/02 03:12:53;;;;;;;0.30;0.30;;;12.70;99.90;13.10;101450.00;;;;5031779;28;20213;-67
2022/01/02 03:15:27;;;;;;;1.00;1.00;;;12.80;99.90;13.50;101453.00;;;;5032497;28;20185;-67
2022/01/02 03:18:08;;;;;;;0.30;0.30;;;13.00;99.90;13.20;101453.00;;;;5031631;28;20190;-67
2022/01/02 03:20:45;;;;;;;0.30;0.30;;;12.90;99.90;13.60;101452.00;;;;5035511;28;20182;-67
2022/01/02 03:23:25;;;;;;;0.30;0.30;;;13.10;99.90;13.50;101459.00;;;;5035146;28;20663;-67
2022/01/02 03:25:58;;;;;;;0.30;0.30;;;13.10;99.90;13.40;101445.00;;;;5036542;28;20603;-67
2022/01/02 03:28:36;;;;;;;0.30;0.30;;;13.10;99.90;13.10;101431.00;;;;5035480;28;20185;-67
2022/01/02 03:31:12;;;;;;;0.80;0.80;;;13.00;99.90;13.00;101439.00;;;;5034821;28;20169;-67
2022/01/02 03:33:56;;;;;;;0.30;0.30;;;12.80;99.90;13.30;101446.00;;;;5035143;28;20634;-67
2022/01/02 03:36:24;;;;;;;0.73;0.73;;;12.90;99.90;12.50;101457.00;;;;5034869;28;20179;-67
2022/01/02 03:38:55;;;;;;;0.30;0.30;;;12.70;99.90;12.60;101448.00;;;;5036227;28;20181;-67
2022/01/02 03:41:29;;;;;;;0.73;0.73;;;12.60;99.90;12.50;101458.00;;;;5036025;28;20174;-67
2022/01/02 03:44:02;;;;;;;1.50;1.40;;;12.50;99.90;12.60;101464.00;;;;5036516;28;20635;-67
2022/01/02 03:46:35;;;;;;;0.30;0.30;;;12.50;99.90;13.30;101459.00;;;;5035643;28;20259;-67
2022/01/02 03:49:11;;;;;;;0.30;0.30;;;12.70;99.90;12.80;101441.00;;;;5035078;28;20171;-67
2022/01/02 03:51:42;;;;;;;0.30;0.30;;;12.70;99.90;13.00;101435.00;;;;5036461;28;20281;-67
2022/01/02 03:54:13;;;;;;;0.57;0.57;;;12.60;99.90;12.40;101416.00;;;;5034732;28;20193;-67
2022/01/02 03:56:50;;;;;;;0.87;0.87;;;12.50;99.90;12.40;101401.00;;;;5035863;28;20235;-67
2022/01/02 03:59:24;;;;;;;0.40;0.40;;;12.40;99.90;12.50;101406.00;;;;5035166;28;20161;-67
2022/01/02 04:02:01;;;;;;;4.13;3.90;;;12.30;99.90;12.70;101380.00;;;;5035585;28;20190;-66
2022/01/02 04:04:38;;;;;;;0.30;0.30;;;12.40;99.90;12.70;101387.00;;;;5035818;28;20217;-66
2022/01/02 04:07:15;;;;;;;0.40;0.40;;;12.40;99.90;12.40;101368.00;;;;5035983;28;20188;-66
2022/01/02 04:09:51;;;;;;;1.30;1.20;;;12.40;99.90;12.20;101377.00;;;;5035669;28;20215;-66
2022/01/02 04:12:31;;;;;;;0.40;0.40;;;12.20;99.90;12.00;101359.00;;;;5034286;28;20271;-66
2022/01/02 04:15:07;;;;;;;0.40;0.40;;;12.10;99.90;12.00;101356.00;;;;5035244;28;20189;-66
2022/01/02 04:17:45;;;;;;;1.13;0.73;;;12.00;99.90;12.00;101339.00;;;;5034309;28;20239;-66
2022/01/02 04:20:19;;;;;;;0.50;0.50;;;12.00;99.90;12.50;101327.00;;;;5035593;28;20191;-67
2022/01/02 04:22:55;;;;;;;0.30;0.30;;;12.20;99.90;12.10;101322.00;;;;5035350;28;20169;-66
2022/01/02 04:25:31;;;;;;;0.30;0.30;;;12.20;99.90;12.20;101284.00;;;;5034105;28;20220;-66
2022/01/02 04:28:08;;;;;;;0.30;0.30;;;12.10;99.90;12.20;101323.00;;;;5035266;28;20689;-66
2022/01/02 04:30:39;;;;;;;0.30;0.30;;;12.10;99.90;12.30;101313.00;;;;5034885;28;20182;-67
2022/01/02 04:33:18;;;;;;;0.30;0.30;;;12.10;99.90;12.20;101304.00;;;;5033839;28;20224;-67
2022/01/02 04:35:52;;;;;;;1.30;1.20;;;12.10;99.90;12.20;101300.00;;;;5035443;28;20168;-66
2022/01/02 04:38:25;;;;;;;0.50;0.50;;;12.10;99.90;12.00;101314.00;;;;5035248;28;20578;-66
2022/01/02 04:40:59;;;;;;;0.30;0.30;;;12.00;99.90;12.00;101306.00;;;;5050758;28;20188;-67
2022/01/02 04:43:36;;;;;;;0.57;0.57;;;12.10;99.90;12.10;101303.00;;;;5034822;28;20695;-66
2022/01/02 04:46:13;;;;;;;0.30;0.30;;;12.10;99.90;12.10;101291.00;;;;5033686;28;20176;-66
2022/01/02 04:48:50;;;;;;;1.13;1.13;;;12.00;99.90;12.00;101288.00;;;;5035036;28;20544;-67
2022/01/02 04:51:26;;;;;;;0.40;0.40;;;12.00;99.90;12.00;101293.00;;;;5033390;28;20244;-66
2022/01/02 04:54:03;;;;;;;0.30;0.30;;;12.00;99.90;12.10;101262.00;;;;5034762;28;20698;-67
2022/01/02 04:56:37;;;;;;;0.27;0.27;;;12.00;99.90;12.10;101296.00;;;;5034556;28;20188;-67
2022/01/02 04:59:08;;;;;;;0.33;0.33;;;12.00;99.90;12.00;101299.00;;;;5034762;28;20638;-67
2022/01/02 05:01:42;;;;;;;0.80;0.60;;;12.00;99.90;11.90;101289.00;;;;5033824;28;20172;-67
2022/01/02 05:04:13;;;;;;;0.30;0.30;;;11.90;99.90;12.00;101234.00;;;;5034628;28;20175;-67
2022/01/02 05:06:47;;;;;;;0.40;0.40;;;12.00;99.90;12.00;101254.00;;;;5034681;28;20181;-67
2022/01/02 05:09:18;;;;;;;0.30;0.30;;;12.00;99.90;12.00;101259.00;;;;5033240;28;20668;-67
2022/01/02 05:11:52;;;;;;;0.43;0.43;;;12.00;99.90;12.20;101216.00;;;;5034260;28;20273;-67
2022/01/02 05:14:27;;;;;;;1.03;1.00;;;12.00;99.90;12.00;101242.00;;;;5032763;28;20272;-67
2022/01/02 05:17:06;;;;;;;0.30;0.30;;;12.00;99.90;12.10;101224.00;;;;5033386;28;20183;-67
2022/01/02 05:19:43;;;;;;;0.40;0.40;;;12.00;99.90;12.00;101199.00;;;;5033056;28;20166;-67
2022/01/02 05:22:22;;;;;;;0.67;0.67;;;12.00;99.90;11.80;101202.00;;;;5033101;28;20200;-67
2022/01/02 05:24:56;;;;;;;3.70;0.70;;;11.90;99.90;12.00;101201.00;;;;5034394;28;20178;-67
2022/01/02 05:27:32;;;;;;;0.50;0.50;;;11.90;99.90;11.90;101184.00;;;;5032888;28;20233;-67
2022/01/02 05:30:12;;;;;;;0.87;0.87;;;12.00;99.90;11.90;101166.00;;;;5034087;28;20774;-67
2022/01/02 05:32:48;;;;;;;2.47;1.50;;;12.00;99.90;11.90;101162.00;;;;5033403;28;20579;-67
2022/01/02 05:35:22;;;;;;;0.30;0.30;;;12.00;99.90;12.30;101147.00;;;;5032419;28;20599;-67
2022/01/02 05:37:58;;;;;;;0.40;0.40;;;12.10;99.90;12.00;101144.00;;;;5033878;28;20185;-67
2022/01/02 05:40:33;;;;;;;0.37;0.37;;;12.10;99.90;12.00;101135.00;;;;5032689;28;20179;-67
2022/01/02 05:43:16;;;;;;;0.57;0.57;;;12.10;99.90;12.00;101133.00;;;;5032117;28;20308;-66
2022/01/02 05:45:50;;;;;;;0.47;0.43;;;12.10;99.90;12.10;101140.00;;;;5032739;28;20189;-66
2022/01/02 05:48:27;;;;;;;0.60;0.60;;;12.00;99.90;12.00;101140.00;;;;5033620;28;20173;-67
2022/01/02 05:51:04;;;;;;;2.03;1.00;;;12.10;99.90;11.80;101139.00;;;;5033165;28;20264;-67
2022/01/02 05:53:45;;;;;;;0.50;0.47;;;12.00;99.90;11.90;101128.00;;;;5032307;28;20652;-66
2022/01/02 05:56:22;;;;;;;1.17;1.03;;;12.10;99.90;12.10;101129.00;;;;5032554;28;20182;-66
2022/01/02 05:58:53;;;;;;;0.47;0.47;;;12.10;99.90;12.20;101104.00;;;;5032399;28;20203;-66
2022/01/02 06:01:22;;;;;;;0.40;0.40;;;12.10;99.90;12.10;101093.00;;;;5033911;28;20178;-66
2022/01/02 06:03:53;;;;;;;0.77;0.77;;;12.10;99.90;12.10;101094.00;;;;5032126;28;20220;-66
2022/01/02 06:06:23;;;;;;;0.57;0.57;;;12.10;99.90;11.90;101038.00;;;;5032201;28;20180;-67
2022/01/02 06:08:56;;;;;;;0.60;0.60;;;12.10;99.90;11.90;101070.00;;;;5032379;28;20532;-66
2022/01/02 06:11:30;;;;;;;0.57;0.40;;;12.00;99.90;12.20;101043.00;;;;5032063;28;20206;-66
2022/01/02 06:14:04;;;;;;;1.17;0.83;;;12.10;99.90;11.90;101027.00;;;;5032074;28;20637;-66
2022/01/02 06:16:33;;;;;;;0.80;0.80;;;12.10;99.90;11.90;101033.00;;;;5033718;28;20241;-67
2022/01/02 06:19:04;;;;;;;0.33;0.33;;;12.10;99.90;11.80;101087.00;;;;5031871;28;20211;-67
2022/01/02 06:21:35;;;;;;;0.50;0.50;;;12.00;99.90;11.90;101103.00;;;;5032374;28;20677;-66
2022/01/02 06:24:06;;;;;;;1.40;1.23;;;12.10;99.90;11.90;101112.00;;;;5033158;28;20183;-67
2022/01/02 06:26:36;;;;;;;0.20;0.20;;;12.00;99.90;12.30;101109.00;;;;5032118;28;20172;-67
2022/01/02 06:29:07;;;;;;;0.43;0.43;;;12.10;99.90;12.10;101103.00;;;;5033135;28;20172;-67
2022/01/02 06:31:41;;;;;;;0.70;0.70;;;12.10;99.90;12.00;101086.00;;;;5032859;28;20222;-66
2022/01/02 06:34:16;;;;;;;1.27;1.20;;;12.10;99.90;11.80;101066.00;;;;5033267;28;20191;-67
2022/01/02 06:36:52;;;;;;;0.73;0.73;;;12.00;99.90;12.00;101029.00;;;;5032140;28;20235;-66
2022/01/02 06:39:26;;;;;;;0.20;0.20;;;12.00;99.90;11.70;101043.00;;;;5048271;28;20177;-66
2022/01/02 06:42:00;;;;;;;2.20;0.87;;;12.00;99.90;11.90;101044.00;;;;5032728;28;20662;-67
2022/01/02 06:44:34;;;;;;;0.83;0.83;;;11.90;99.90;11.80;101039.00;;;;5032414;28;20180;-67
2022/01/02 06:47:08;;;;;;;0.40;0.40;;;11.90;99.90;12.10;101033.00;;;;5031955;28;20181;-67
2022/01/02 06:49:44;;;;;;;0.63;0.63;;;12.00;99.90;12.00;101041.00;;;;5031777;28;20193;-67
2022/01/02 06:52:15;;;;;;;0.30;0.30;;;12.10;99.90;11.90;101041.00;;;;5031651;28;20235;-67
2022/01/02 06:54:53;;;;;;;0.30;0.30;;;12.10;99.90;12.00;101042.00;;;;5034634;28;20210;-68
2022/01/02 06:57:33;;;;;;;0.20;0.20;;;12.00;99.90;11.90;101039.00;;;;5037411;28;20194;-67
2022/01/02 07:00:13;;;;;;;0.30;0.30;;;12.00;99.90;11.80;101039.00;;;;5037312;28;20639;-67
2022/01/02 07:02:50;;;;;;;2.13;1.13;;;12.00;99.90;12.00;101053.00;;;;5035890;28;20188;-67
2022/01/02 07:05:27;;;;;;;0.30;0.30;;;12.00;99.90;12.10;101053.00;;;;5035567;28;20182;-67
2022/01/02 07:08:06;;;;;;;2.13;2.03;;;12.20;99.90;12.20;101069.00;;;;5037029;28;20662;-66
2022/01/02 07:10:42;;;;;;;0.80;0.80;;;12.10;99.90;12.30;101066.00;;;;5036941;28;20247;-67
2022/01/02 07:13:20;;;;;;;0.50;0.50;;;12.20;99.90;12.60;101080.00;;;;5035255;28;20205;-67
2022/01/02 07:15:59;;;;;;;0.40;0.40;;;12.40;99.90;12.40;101074.00;;;;5035275;28;20182;-66
2022/01/02 07:18:33;;;;;;;0.30;0.30;;;12.30;99.90;12.70;101085.00;;;;5035405;28;20186;-66
2022/01/02 07:21:08;;;;;;;1.60;0.80;;;12.50;99.90;12.70;101084.00;;;;5035600;28;20541;-66
2022/01/02 07:23:45;;;;;;;0.20;0.20;;;12.50;99.90;12.90;101079.00;;;;5034694;28;20226;-67
2022/01/02 07:26:18;;;;;;;1.03;0.93;;;12.60;99.90;12.70;101105.00;;;;5036415;28;20696;-67
2022/01/02 07:28:55;;;;;;;0.37;0.37;;;12.70;99.90;12.60;101089.00;;;;5036303;28;20215;-67
2022/01/02 07:31:31;;;;;;;0.40;0.40;;;12.60;99.90;12.50;101110.00;;;;5036248;28;20224;-67
2022/01/02 07:34:02;;;;;;;0.33;0.33;;;12.60;99.90;12.40;101104.00;;;;5036003;28;20181;-67
2022/01/02 07:36:39;;;;;;;0.93;0.93;;;12.60;99.90;12.70;101108.00;;;;5036234;28;20206;-67
2022/01/02 07:39:16;;;;;;;0.30;0.30;;;12.60;99.90;12.90;101062.00;;;;5035979;28;20170;-67
2022/01/02 07:42:05;;;;;;;0.80;0.80;;;12.70;99.90;12.70;101094.00;;;;5034881;28;20689;-68
2022/01/02 07:44:42;;;;;;;1.10;1.03;;;12.60;99.90;12.50;101104.00;;;;5036219;28;20176;-68
2022/01/02 07:47:13;;;;;;;0.20;0.20;;;12.60;99.90;12.70;101102.00;;;;5034797;28;20552;-67
2022/01/02 07:49:45;;;;;;;1.20;1.10;;;12.50;99.90;12.60;101081.00;;;;5027411;28;20198;-67
2022/01/02 07:52:16;;;;;;;4.47;0.77;;;12.60;99.90;11.90;101064.00;;;;5030760;28;20285;-67
2022/01/02 07:54:50;;;;;;;0.80;0.80;;;12.30;99.90;11.90;101071.00;;;;5031391;28;20196;-67
2022/01/02 07:57:26;;;;;;;0.77;0.43;;;12.20;99.90;12.00;101086.00;;;;5031715;28;20221;-67
2022/01/02 08:00:00;;;;;;;0.70;0.70;;;12.10;99.90;12.10;101093.00;;;;5031386;28;20181;-67
2022/01/02 08:02:39;;;;;;;0.47;0.40;;;12.10;99.90;11.80;101090.00;;;;5014811;28;20193;-67
2022/01/02 08:05:16;;;;;;;0.27;0.27;;;12.10;99.90;12.20;101103.00;;;;5030362;28;20274;-67
2022/01/02 08:07:51;;;;;;;0.70;0.70;;;12.10;99.90;12.30;101095.00;;;;5015391;28;20576;-67
2022/01/02 08:10:26;;;;;;;0.60;0.60;;;12.20;99.90;12.20;101044.00;;;;5031104;28;20181;-67
2022/01/02 08:13:08;;;;;;;0.77;0.50;;;12.20;99.90;12.50;101095.00;;;;5030693;28;20640;-67
2022/01/02 08:15:43;;;;;;;1.60;1.17;;;12.30;99.90;12.10;101101.00;;;;5030303;28;20648;-67
2022/01/02 08:18:20;;;;;;;0.20;0.20;;;12.30;99.90;12.60;101117.00;;;;5031360;28;20222;-68
2022/01/02 08:20:59;;;;;;;0.30;0.30;;;12.40;99.90;12.30;101064.00;;;;5030038;28;20627;-67
2022/01/02 08:23:38;;;;;;;0.47;0.47;;;12.40;99.90;12.30;101095.00;;;;5015613;28;20181;-67
2022/01/02 08:26:18;;;;;;;0.57;0.40;;;12.30;99.90;12.50;101094.00;;;;4998400;28;20196;-67
2022/01/02 08:28:55;;;;;;;0.53;0.53;;;12.40;99.90;12.70;101082.00;;;;5030516;28;20169;-67
